Terminal Aerodrome Forecast
Issued by NWS

Home | Current Version | Previous Version | Text Only | Print | Product List | Glossary On
Versions: 1 2 3 4 5 6 7 8 9 10 11 12 13 14 15 16 17 18 19 20 21 22 23 24 25
000
FTUS41 KGYX 251720
TAFRKD
TAF
KRKD 251720Z 2518/2618 22008KT P6SM BKN200
     FM260200 20007KT 6SM -SHRA BR OVC030
     FM260600 21009KT 2SM -RA BR OVC007
     FM260900 21010KT 4SM -RA BR OVC015
     FM261300 22012KT P6SM BKN250
      AMD LTD TO CLD VIS AND WIND=

USA.gov is the U.S. government's official web portal to all federal, state and local government web resources and services.